Wallblake, Anguilla

4:44 AM AST on July 26, 2016 (GMT -0400)
Dutch Cul-De-Sac | | Change Station

Elev 72 ft 18.05 °N, 63.06 °W | Updated 13 seconds ago

Overcast
Overcast
81.9 °F
Feels Like 89 °F
N
2.7
Wind Variable Wind from SSW
Gusts 4.9 mph

Today
High -- | Low -- °F
--% Chance of Precip.
Yesterday
High -- | Low -- °F
Precip. -- in
Pressure 29.98 in
Visibility 5.0 miles
Clouds Mostly Cloudy 1400 ft
Heat Index 89 °F
Dew Point 76 °F
Humidity 82%
Rainfall 0.11 in
Snow Depth Not available.
5:48 AM 6:48 PM
Waning Gibbous, 57% visible
METAR TNCM 260800Z 09009G21KT 060V130 8000 -SHRA BKN014TCU 28/25 Q1015 A2997 RMK TCU E TO OVHD MOV. W
Pressure 29.98 in
Visibility 5.0 miles
Clouds Mostly Cloudy 1400 ft
Heat Index 89 °F
Dew Point 76 °F
Humidity 82%
Rainfall 0.11 in
Snow Depth Not available.
5:48 AM 6:48 PM
Waning Gibbous, 57% visible
METAR TNCM 260800Z 09009G21KT 060V130 8000 -SHRA BKN014TCU 28/25 Q1015 A2997 RMK TCU E TO OVHD MOV. W

10-Day Weather Forecast

No radar image for this location.
×

Almanac

Astronomy

Jul. 26, 2016 Rise Set
Actual Time
Civil Twilight
Nautical Twilight
Astronomical Twilight
Moon
Length of Visible Light
Length of Day
Tomorrow will be .
, % of the Moon is Illuminated

Today's Extremes

Country Highs Country Lows

Community

WunderPhotos

Upload Photos

1,927,556 photos uploaded!

WunderBlog® & News

Nearby

Air Quality

  Air Quality AQ Index Pollutant
Not available.

Snow Depth

Station Depth Elevation

Earthquake Activity

City Distance Mag. Time & Date
Minimum magnitude displayed is 2.5.

Coastal Water Temperatures

Place Temperature

Stations

Nearby Weather Stations

Station Location Temp. Windchill Dew Point Humidity Wind Precip. Elev Updated Type